Main page
METAR-TAF:

METAR-TAF

Airports :

Diori Hamani International Airport

Niamey, Niger

latitude: 13-29N, longitude: 002-10E, elevation: 223 m

Current weather observation

The report was made 53 minutes ago, at 08:00 UTC
Wind 6 kt from the North/Northeast, varying between North and East/Northeast
Temperature 30°C
Humidity 9%
Pressure 1009 hPa
Visibility: 6000 m

METAR: DRRN 210800Z 02006KT 360V060 6000 NSC 30/M06 Q1009 TEMPO 4000 DU

Time: 09:53 (08:53 UTC)

Forecast

The report was made 3 hours and 53 minutes ago, at 05:00 UTC
Forecast valid from 21 at 06 UTC to 22 at 12 UTC
Wind 10 kt from the East/Northeast
Visibility: 8000 m
Temporary
from 21 at 06 UTC to 21 at 08 UTC
Visibility: 4000 m
widespread dust
Temporary
from 21 at 17 UTC to 21 at 20 UTC
Visibility: 4000 m
widespread dust

TAF: DRRN 210500Z 2106/2212 06010KT 8000 NS TEMPO 2106/2108 4000 DU TEMPO 2117/2120 4000 DU

Weather observations and forecasts of more than 4000 airports (METAR and TAF reports).

The available stations are represented by yellow and red dots on the map.

Hover mouse over dot to see the name of the station.

Then click to see weather observations and forecasts.

To change the map : click on the green buttons with a black cross to zoom in, on the green button with a dash to zoom out, or on the green arrows for adjacent maps.


METAR-TAF: